Time;durP1;ratioP1;P1;durP2;ratioP2;P2;SDS_P1;SDS_P2;PMS_P1;PMS_P2;Temp;Humidity;BMP_temperature;BMP_pressure;BME280_temperature;BME280_humidity;BME280_pressure;Samples;Min_cycle;Max_cycle;Signal;HPM_P1;HPM_P2
2021/12/02 00:01:25;;;;;;;5.63;1.83;;;;;;;9.33;94.74;96081.25;4969191;28;20035;-55
2021/12/02 00:03:51;;;;;;;5.85;1.80;;;;;;;9.80;98.96;96082.44;4968366;28;20130;-55
2021/12/02 00:06:18;;;;;;;4.18;1.80;;;;;;;9.87;100.00;96084.59;4967092;28;20142;-55
2021/12/02 00:08:45;;;;;;;4.65;1.60;;;;;;;8.90;94.03;96086.69;4971866;28;20030;-55
2021/12/02 00:11:10;;;;;;;5.25;1.80;;;;;;;9.42;92.97;96079.81;4973159;28;20047;-56
2021/12/02 00:13:46;;;;;;;4.93;1.45;;;;;;;10.82;100.00;96090.94;4974499;28;20026;-54
2021/12/02 00:21:15;;;;;;;5.07;2.03;;;;;;;8.92;88.87;96087.44;4971480;28;20708;-55
2021/12/02 00:23:49;;;;;;;7.97;2.13;;;;;;;10.21;99.91;96085.72;4973397;28;20045;-56
2021/12/02 00:26:17;;;;;;;3.83;1.75;;;;;;;9.58;97.17;96087.44;4972795;28;20497;-55
2021/12/02 00:28:44;;;;;;;4.75;1.75;;;;;;;10.29;89.55;96092.97;4980432;28;20890;-55
2021/12/02 00:31:17;;;;;;;4.35;1.90;;;;;;;9.07;87.94;96094.22;4972987;28;20495;-55
2021/12/02 00:33:50;;;;;;;4.88;2.00;;;;;;;9.17;91.68;96086.66;4972362;28;20104;-55
2021/12/02 00:36:17;;;;;;;4.68;1.98;;;;;;;9.37;99.06;96090.53;4972183;28;20109;-55
2021/12/02 00:38:44;;;;;;;5.30;2.00;;;;;;;9.89;100.00;96090.53;4972201;28;20027;-55
2021/12/02 00:41:15;;;;;;;5.63;2.08;;;;;;;9.80;100.00;96098.06;4973428;28;20740;-56
2021/12/02 00:43:41;;;;;;;4.78;1.90;;;;;;;9.35;90.89;96091.56;4972682;28;20510;-55
2021/12/02 00:46:10;;;;;;;4.57;1.83;;;;;;;9.40;91.66;96090.31;4972502;28;20035;-55
2021/12/02 00:48:36;;;;;;;5.20;1.90;;;;;;;9.84;95.23;96096.91;4968834;28;20027;-55
2021/12/02 00:51:03;;;;;;;3.95;1.55;;;;;;;10.64;100.00;96106.13;4979330;28;20038;-55
2021/12/02 00:53:31;;;;;;;5.32;2.13;;;;;;;10.72;100.00;96101.22;4970347;28;20030;-55
2021/12/02 00:56:01;;;;;;;5.80;1.80;;;;;;;10.31;93.78;96106.75;4974964;28;20045;-56
2021/12/02 00:58:28;;;;;;;3.83;1.77;;;;;;;11.81;88.20;96094.94;4974705;28;20035;-55
2021/12/02 01:00:54;;;;;;;4.00;1.70;;;;;;;11.47;100.00;96102.72;4970758;28;20088;-55
2021/12/02 01:03:20;;;;;;;4.97;1.90;;;;;;;10.03;88.79;96098.22;4968966;28;20015;-55
2021/12/02 01:05:45;;;;;;;3.78;1.75;;;;;;;11.64;100.00;96114.50;4971952;28;20144;-55
2021/12/02 01:08:11;;;;;;;4.68;2.00;;;;;;;10.68;100.00;96106.75;4970501;28;20444;-55
2021/12/02 01:10:39;;;;;;;3.33;1.60;;;;;;;11.61;96.66;96109.50;4971253;28;20034;-55
2021/12/02 01:13:05;;;;;;;3.60;1.50;;;;;;;12.63;92.10;96101.72;4979716;28;20520;-56
2021/12/02 01:15:30;;;;;;;4.70;1.70;;;;;;;11.98;94.42;96092.84;4979538;28;20038;-56
2021/12/02 01:17:55;;;;;;;4.45;1.80;;;;;;;11.38;84.77;96092.97;4971195;28;20443;-55
2021/12/02 01:20:21;;;;;;;4.30;1.65;;;;;;;12.31;100.00;96097.22;4970798;28;20113;-56
2021/12/02 01:22:48;;;;;;;4.38;1.60;;;;;;;14.21;96.48;96096.53;4979643;28;20389;-55
2021/12/02 01:25:17;;;;;;;3.13;1.50;;;;;;;12.34;80.70;96099.59;4971057;28;20034;-55
2021/12/02 01:27:46;;;;;;;3.00;1.42;;;;;;;12.22;97.62;96097.94;4971070;28;20026;-56
2021/12/02 01:30:12;;;;;;;6.15;1.90;;;;;;;10.77;85.70;96106.94;4973011;28;20039;-55
2021/12/02 01:32:38;;;;;;;3.33;1.50;;;;;;;13.69;99.89;96112.25;4979725;28;20054;-55
2021/12/02 01:35:05;;;;;;;3.17;1.63;;;;;;;10.60;85.49;96110.78;4972030;28;20480;-57
2021/12/02 01:37:30;;;;;;;4.53;1.70;;;;;;;10.97;85.19;96121.16;4971769;28;20039;-56
2021/12/02 01:39:57;;;;;;;3.70;1.88;;;;;;;11.73;93.18;96119.03;4971484;28;20097;-55
2021/12/02 01:42:24;;;;;;;3.38;1.30;;;;;;;12.21;97.17;96123.25;4969517;28;20039;-55
2021/12/02 01:44:56;;;;;;;2.97;1.30;;;;;;;13.94;99.37;96120.66;4969209;28;20023;-55
2021/12/02 01:47:25;;;;;;;3.03;1.48;;;;;;;11.02;95.72;96126.03;4972285;28;20063;-55
2021/12/02 01:49:55;;;;;;;4.10;1.80;;;;;;;9.80;89.87;96118.06;4971908;28;20031;-56
2021/12/02 01:52:27;;;;;;;4.72;1.90;;;;;;;11.24;92.75;96127.06;4971461;28;20049;-55
2021/12/02 01:55:03;;;;;;;4.78;1.80;;;;;;;10.87;82.13;96134.97;4971449;28;20033;-55
2021/12/02 01:57:31;;;;;;;3.17;1.63;;;;;;;9.93;82.62;96123.25;4970240;28;20031;-56
2021/12/02 02:00:19;;;;;;;6.00;2.00;;;;;;;10.65;82.92;96120.03;4974645;28;20504;-55
2021/12/02 02:02:47;;;;;;;3.83;1.92;;;;;;;10.58;85.35;96125.66;4971636;28;20043;-55
2021/12/02 02:05:15;;;;;;;4.10;1.67;;;;;;;10.31;90.92;96117.19;4971286;28;20107;-55
2021/12/02 02:07:49;;;;;;;3.20;1.77;;;;;;;9.77;87.39;96131.28;4970198;28;20593;-54
2021/12/02 02:10:16;;;;;;;3.88;1.88;;;;;;;11.10;93.71;96130.69;4969476;28;20106;-55
2021/12/02 02:12:41;;;;;;;4.00;1.90;;;;;;;11.75;84.61;96135.41;4970065;28;20022;-55
2021/12/02 02:15:07;;;;;;;3.42;1.58;;;;;;;10.70;88.44;96138.78;4970145;28;20714;-53
2021/12/02 02:17:40;;;;;;;4.47;1.80;;;;;;;10.77;83.21;96140.00;4971511;28;20053;-56
2021/12/02 02:20:08;;;;;;;4.57;1.95;;;;;;;10.41;86.45;96144.28;4954247;28;20030;-55
2021/12/02 02:22:34;;;;;;;3.85;1.50;;;;;;;11.38;93.58;96135.53;4969183;28;20112;-55
2021/12/02 02:25:00;;;;;;;4.10;1.92;;;;;;;10.79;78.11;96132.91;4971930;28;20057;-55
2021/12/02 02:27:26;;;;;;;3.63;1.77;;;;;;;11.23;88.13;96134.09;4973121;28;20035;-56
2021/12/02 02:29:51;;;;;;;3.03;1.40;;;;;;;12.23;100.00;96141.44;4970410;28;20019;-55
2021/12/02 02:32:18;;;;;;;4.53;2.10;;;;;;;9.91;81.05;96138.16;4970534;28;20039;-55
2021/12/02 02:34:43;;;;;;;4.05;1.92;;;;;;;9.81;84.38;96125.75;4969314;28;20049;-58
2021/12/02 02:37:09;;;;;;;4.28;1.80;;;;;;;10.89;94.08;96131.28;4969012;28;20413;-55
2021/12/02 02:39:36;;;;;;;4.38;1.70;;;;;;;10.98;92.55;96135.84;4969594;28;20034;-56
2021/12/02 02:42:05;;;;;;;4.00;1.90;;;;;;;10.98;81.36;96133.25;4969881;28;20101;-55
2021/12/02 02:44:32;;;;;;;3.13;1.60;;;;;;;11.21;86.45;96128.13;4969866;28;20030;-55
2021/12/02 02:46:58;;;;;;;3.20;1.45;;;;;;;13.30;100.00;96132.91;4970486;28;20134;-55
2021/12/02 02:49:23;;;;;;;5.75;1.73;;;;;;;11.99;89.81;96131.09;4970976;28;20105;-56
2021/12/02 02:51:49;;;;;;;11.30;1.90;;;;;;;11.07;82.58;96136.16;4968564;28;20061;-55
2021/12/02 02:54:17;;;;;;;4.65;1.98;;;;;;;11.42;92.71;96136.16;4968989;28;20593;-56
2021/12/02 02:57:04;;;;;;;3.15;1.58;;;;;;;11.08;98.24;96133.44;4968972;28;20035;-55
2021/12/02 03:02:09;;;;;;;4.82;2.00;;;;;;;10.38;79.52;96126.25;4967992;28;20488;-55
2021/12/02 03:07:58;;;;;;;4.43;1.70;;;;;;;11.06;100.00;96134.47;4969978;28;20101;-55
2021/12/02 03:17:42;;;;;;;5.50;1.80;;;;;;;9.90;93.39;96131.28;4969348;28;20027;-56
2021/12/02 03:20:08;;;;;;;4.45;1.90;;;;;;;9.13;88.77;96131.16;4968588;28;20055;-55
2021/12/02 03:22:34;;;;;;;2.95;1.45;;;;;;;11.90;97.80;96130.00;4971325;28;20030;-56
2021/12/02 03:24:59;;;;;;;4.43;1.98;;;;;;;9.29;85.88;96118.81;4968083;28;20145;-55
2021/12/02 03:27:26;;;;;;;5.22;2.00;;;;;;;9.96;100.00;96128.25;4970041;28;20031;-55
2021/12/02 03:29:52;;;;;;;3.78;1.73;;;;;;;11.52;100.00;96123.25;4967013;28;20031;-55
2021/12/02 03:32:17;;;;;;;4.97;2.05;;;;;;;9.86;82.47;96120.22;4968419;28;20042;-55
2021/12/02 03:34:43;;;;;;;4.35;1.80;;;;;;;10.57;94.94;96129.22;4968202;28;20034;-55
2021/12/02 03:37:09;;;;;;;6.78;2.30;;;;;;;9.78;90.35;96125.97;4968849;28;20134;-56
2021/12/02 03:39:35;;;;;;;3.63;1.63;;;;;;;11.48;100.00;96129.66;4969728;28;20089;-55
2021/12/02 03:42:01;;;;;;;5.35;2.05;;;;;;;8.89;79.84;96116.22;4977202;28;20042;-55
2021/12/02 03:44:27;;;;;;;4.63;2.00;;;;;;;10.16;96.54;96119.91;4971051;28;20104;-55
2021/12/02 03:46:53;;;;;;;4.65;1.95;;;;;;;10.08;91.52;96121.38;4972573;28;20042;-55
2021/12/02 03:49:19;;;;;;;4.05;1.90;;;;;;;9.81;96.55;96119.69;4973071;28;20046;-55
2021/12/02 03:51:45;;;;;;;3.40;1.45;;;;;;;9.97;100.00;96122.09;4972524;28;20038;-55
2021/12/02 03:54:10;;;;;;;4.55;2.30;;;;;;;9.60;94.68;96122.81;4973281;28;20256;-55
2021/12/02 03:56:36;;;;;;;5.43;2.40;;;;;;;9.78;89.83;96130.34;4972463;28;20042;-55
2021/12/02 03:59:02;;;;;;;4.68;1.80;;;;;;;9.11;99.03;96125.22;4975654;28;20031;-56
2021/12/02 04:01:28;;;;;;;6.82;2.35;;;;;;;8.91;84.62;96116.13;4972342;28;20031;-55
2021/12/02 04:03:53;;;;;;;5.40;2.40;;;;;;;8.25;83.42;96132.31;4971724;28;20035;-55
2021/12/02 04:06:20;;;;;;;5.18;2.30;;;;;;;9.46;92.24;96130.72;4973874;28;20038;-55
2021/12/02 04:11:23;;;;;;;5.13;2.40;;;;;;;8.41;94.79;96126.16;4972201;28;20047;-55
2021/12/02 04:16:39;;;;;;;6.05;2.60;;;;;;;8.32;93.38;96131.94;4958611;28;20085;-57
2021/12/02 04:19:07;;;;;;;6.85;2.63;;;;;;;9.48;94.41;96128.00;4971589;28;20022;-55
2021/12/02 04:21:33;;;;;;;5.82;2.47;;;;;;;8.32;85.21;96129.31;4971128;28;20034;-55
2021/12/02 04:23:59;;;;;;;4.97;2.08;;;;;;;9.23;92.45;96127.03;4970737;28;20037;-55
2021/12/02 04:26:24;;;;;;;5.15;2.22;;;;;;;9.39;100.00;96132.06;4972239;28;20129;-55
2021/12/02 04:28:50;;;;;;;7.78;2.30;;;;;;;9.54;95.64;96132.81;4972459;28;20034;-56
2021/12/02 04:31:16;;;;;;;5.07;2.47;;;;;;;7.94;82.81;96133.34;4972155;28;20358;-55
2021/12/02 04:33:41;;;;;;;5.90;2.33;;;;;;;8.17;89.62;96134.53;4973503;28;20514;-55
2021/12/02 04:36:07;;;;;;;6.72;2.90;;;;;;;8.31;89.63;96136.28;4973372;28;20043;-56
2021/12/02 04:38:33;;;;;;;5.85;2.40;;;;;;;9.77;93.63;96134.69;4973131;28;20027;-55
2021/12/02 04:40:58;;;;;;;5.47;2.40;;;;;;;9.79;95.43;96132.81;4971849;28;20050;-55
2021/12/02 04:43:24;;;;;;;6.15;2.60;;;;;;;9.96;85.62;96136.91;4974236;28;20030;-55
2021/12/02 04:45:50;;;;;;;3.72;1.63;;;;;;;8.99;97.67;96137.28;4974285;28;20047;-55
2021/12/02 04:48:16;;;;;;;6.80;2.33;;;;;;;9.89;96.18;96134.81;4971559;28;20640;-55
2021/12/02 04:50:42;;;;;;;6.47;2.58;;;;;;;9.09;91.44;96140.94;4971756;28;20042;-55
2021/12/02 04:53:08;;;;;;;6.88;2.50;;;;;;;8.30;87.22;96138.03;4970757;28;20349;-56
2021/12/02 04:55:33;;;;;;;6.20;2.90;;;;;;;7.87;83.92;96127.69;4971044;28;20764;-56
2021/12/02 04:57:58;;;;;;;5.97;2.35;;;;;;;8.67;94.39;96133.19;4971389;28;20027;-55
2021/12/02 05:00:24;;;;;;;7.72;2.60;;;;;;;8.18;86.39;96136.22;4970036;28;20039;-56
2021/12/02 05:02:50;;;;;;;6.47;2.63;;;;;;;8.41;91.83;96128.75;4972199;28;20492;-55
2021/12/02 05:05:16;;;;;;;6.68;2.80;;;;;;;8.13;90.69;96133.06;4969180;28;20030;-57
2021/12/02 05:07:41;;;;;;;5.50;2.50;;;;;;;8.76;93.49;96130.94;4971242;28;20061;-55
2021/12/02 05:10:07;;;;;;;6.18;2.35;;;;;;;9.19;96.54;96129.00;4971736;28;20200;-55
2021/12/02 05:12:33;;;;;;;6.15;2.55;;;;;;;8.19;86.86;96132.66;4970606;28;20536;-55
2021/12/02 05:14:59;;;;;;;5.55;2.10;;;;;;;8.84;100.00;96132.13;4973368;28;20460;-55
2021/12/02 05:17:24;;;;;;;6.20;2.50;;;;;;;8.53;92.51;96135.81;4971393;28;20065;-55
2021/12/02 05:19:50;;;;;;;6.15;2.28;;;;;;;8.77;93.42;96130.00;4971653;28;20023;-55
2021/12/02 05:22:16;;;;;;;5.57;2.30;;;;;;;8.48;100.00;96132.69;4970089;28;20035;-55
2021/12/02 05:24:41;;;;;;;7.00;2.45;;;;;;;9.56;95.91;96143.97;4970680;28;20046;-55
2021/12/02 05:27:07;;;;;;;4.72;2.22;;;;;;;8.56;90.31;96140.81;4970947;28;20119;-54
2021/12/02 05:29:32;;;;;;;7.70;2.47;;;;;;;9.09;91.55;96142.72;4970654;28;20041;-55
2021/12/02 05:31:58;;;;;;;5.00;2.00;;;;;;;8.85;93.30;96143.34;4968809;28;20101;-55
2021/12/02 05:34:24;;;;;;;4.10;1.98;;;;;;;10.16;100.00;96132.94;4971258;28;20036;-55
2021/12/02 05:36:49;;;;;;;5.60;2.40;;;;;;;8.00;91.55;96137.34;4971937;28;20528;-55
2021/12/02 05:39:15;;;;;;;5.90;2.13;;;;;;;7.89;90.98;96133.59;4970464;28;20081;-55
2021/12/02 05:41:40;;;;;;;7.05;2.95;;;;;;;8.05;93.86;96132.66;4968455;28;20089;-54
2021/12/02 05:44:06;;;;;;;6.35;2.55;;;;;;;8.84;92.06;96128.66;4972506;28;20041;-55
2021/12/02 05:46:31;;;;;;;5.25;2.05;;;;;;;9.48;99.65;96126.25;4971009;28;20408;-55
2021/12/02 05:48:56;;;;;;;7.35;3.15;;;;;;;8.62;88.68;96126.59;4973314;28;20073;-55
2021/12/02 05:51:22;;;;;;;8.38;3.08;;;;;;;7.51;88.42;96120.31;4971576;28;20084;-55
2021/12/02 05:53:47;;;;;;;7.93;3.50;;;;;;;7.51;93.57;96125.50;4958297;28;20038;-54
2021/12/02 05:56:13;;;;;;;7.43;3.45;;;;;;;7.50;90.04;96124.69;4973470;28;20084;-55
2021/12/02 05:58:38;;;;;;;7.88;3.25;;;;;;;6.91;87.12;96131.53;4973080;28;20034;-55
2021/12/02 06:01:04;;;;;;;8.98;3.65;;;;;;;7.37;93.18;96123.72;4969483;28;20046;-54
2021/12/02 06:03:30;;;;;;;10.20;3.53;;;;;;;7.05;89.04;96125.56;4970671;28;20026;-55
2021/12/02 06:05:56;;;;;;;8.63;3.00;;;;;;;7.36;86.20;96123.81;4972929;28;20069;-55
2021/12/02 06:08:21;;;;;;;6.55;3.15;;;;;;;7.28;91.37;96134.63;4974775;28;20073;-56
2021/12/02 06:10:47;;;;;;;8.57;3.17;;;;;;;7.59;96.77;96128.50;4971361;28;20058;-55
2021/12/02 06:13:12;;;;;;;6.55;2.97;;;;;;;7.10;89.96;96134.75;4975924;28;20034;-55
2021/12/02 06:15:37;;;;;;;7.05;3.15;;;;;;;7.04;88.96;96126.47;4972395;28;20138;-55
2021/12/02 06:18:03;;;;;;;8.32;3.15;;;;;;;7.39;92.38;96132.25;4971710;28;20023;-55
2021/12/02 06:20:28;;;;;;;7.80;3.15;;;;;;;7.21;90.49;96141.09;4973025;28;20101;-55
2021/12/02 06:22:53;;;;;;;8.75;3.10;;;;;;;7.01;87.40;96137.88;4973700;28;20121;-57
2021/12/02 06:27:47;;;;;;;7.25;3.10;;;;;;;6.96;87.08;96134.69;4973038;28;20025;-56
2021/12/02 06:30:14;;;;;;;8.57;3.22;;;;;;;6.94;87.18;96139.13;4972309;28;20477;-56
2021/12/02 06:32:40;;;;;;;6.80;2.80;;;;;;;8.66;100.00;96143.69;4971882;28;20130;-55
2021/12/02 06:35:07;;;;;;;6.13;2.67;;;;;;;9.32;97.66;96143.78;4973650;28;20050;-54
2021/12/02 06:37:33;;;;;;;5.43;2.20;;;;;;;8.85;95.90;96143.34;4970818;28;20092;-55
2021/12/02 06:39:58;;;;;;;4.13;1.75;;;;;;;9.70;100.00;96143.03;4973594;28;20623;-55
2021/12/02 06:42:24;;;;;;;4.00;1.85;;;;;;;10.32;100.00;96143.13;4970493;28;20038;-55
2021/12/02 06:44:49;;;;;;;5.47;2.58;;;;;;;8.18;91.78;96148.34;4972839;28;20026;-55
2021/12/02 06:47:14;;;;;;;5.97;2.60;;;;;;;8.19;87.05;96150.84;4973378;28;20148;-56
2021/12/02 06:49:40;;;;;;;6.68;2.70;;;;;;;8.10;89.83;96148.81;4972823;28;20406;-55
2021/12/02 06:52:11;;;;;;;9.65;2.58;;;;;;;8.48;98.18;96149.09;4972033;28;20046;-55
2021/12/02 06:54:36;;;;;;;7.18;2.70;;;;;;;8.17;89.85;96149.28;4974812;28;20492;-55
2021/12/02 06:57:02;;;;;;;6.20;2.42;;;;;;;9.04;90.01;96146.44;4973321;28;20166;-55
2021/12/02 06:59:27;;;;;;;7.60;2.88;;;;;;;9.06;100.00;96149.78;4971670;28;20022;-55
2021/12/02 07:01:52;;;;;;;5.32;2.42;;;;;;;8.45;82.70;96153.63;4969157;28;20055;-55
2021/12/02 07:04:18;;;;;;;7.60;3.08;;;;;;;8.06;86.53;96153.34;4970437;28;20030;-55
2021/12/02 07:06:44;;;;;;;6.45;1.98;;;;;;;8.79;97.37;96144.56;4969721;28;20050;-56
2021/12/02 07:09:10;;;;;;;9.00;2.63;;;;;;;8.51;92.17;96136.84;4972929;28;20022;-55
2021/12/02 07:11:36;;;;;;;7.57;2.80;;;;;;;7.80;86.71;96139.34;4972963;28;20034;-55
2021/12/02 07:14:07;;;;;;;6.63;1.90;;;;;;;10.66;100.00;96142.53;4970624;28;20034;-54
2021/12/02 07:16:33;;;;;;;7.40;2.30;;;;;;;9.88;86.51;96140.97;4972339;28;20042;-54
2021/12/02 07:19:02;;;;;;;7.50;2.33;;;;;;;11.32;96.59;96140.38;4970709;28;20031;-55
2021/12/02 07:21:27;;;;;;;4.90;2.20;;;;;;;9.79;78.86;96138.03;4972103;28;20147;-53
2021/12/02 07:23:52;;;;;;;6.00;2.53;;;;;;;9.58;84.68;96147.31;4979851;28;20143;-55
2021/12/02 07:26:18;;;;;;;6.35;2.38;;;;;;;8.92;77.84;96146.41;4970592;28;20074;-53
2021/12/02 07:28:45;;;;;;;10.18;2.40;;;;;;;8.53;82.17;96150.56;4973898;28;20096;-53
2021/12/02 07:31:11;;;;;;;8.63;2.88;;;;;;;10.32;90.54;96145.75;4973047;28;20038;-53
2021/12/02 07:33:38;;;;;;;8.80;3.17;;;;;;;9.96;83.02;96154.28;4973390;28;20023;-53
2021/12/02 07:36:05;;;;;;;7.88;2.60;;;;;;;9.60;90.64;96158.44;4969928;28;20035;-53
2021/12/02 07:38:32;;;;;;;8.05;2.78;;;;;;;9.57;79.40;96154.25;4971513;28;20561;-53
2021/12/02 07:41:05;;;;;;;7.75;2.53;;;;;;;9.17;84.72;96162.09;4969444;28;20053;-53
2021/12/02 07:43:36;;;;;;;7.00;2.40;;;;;;;7.85;84.81;96165.88;4974082;28;20034;-54
2021/12/02 07:46:02;;;;;;;7.97;2.60;;;;;;;7.34;84.69;96165.41;4970849;28;20047;-53
2021/12/02 07:48:28;;;;;;;8.02;2.90;;;;;;;7.20;83.29;96168.75;4971428;28;20038;-53
2021/12/02 07:51:02;;;;;;;7.50;2.70;;;;;;;6.61;86.08;96166.00;4971094;28;20049;-54
2021/12/02 07:53:28;;;;;;;8.38;3.35;;;;;;;7.12;87.16;96161.41;4971745;28;20113;-53
2021/12/02 07:55:55;;;;;;;8.02;2.80;;;;;;;6.71;88.82;96169.75;4971209;28;20130;-53
2021/12/02 07:58:23;;;;;;;9.02;2.78;;;;;;;7.45;90.99;96180.34;4970468;28;20054;-53
2021/12/02 08:00:50;;;;;;;6.93;2.88;;;;;;;6.41;86.74;96176.59;4972920;28;20049;-54
2021/12/02 08:03:16;;;;;;;12.18;3.15;;;;;;;6.41;87.38;96174.81;4971494;28;20065;-54
2021/12/02 08:05:43;;;;;;;8.20;3.05;;;;;;;6.37;89.08;96181.91;4969437;28;20443;-53
2021/12/02 08:08:08;;;;;;;8.60;2.83;;;;;;;6.56;91.01;96183.53;4973594;28;20030;-53
2021/12/02 08:10:35;;;;;;;7.53;2.80;;;;;;;6.96;91.77;96181.34;4971557;28;20396;-53
2021/12/02 08:13:02;;;;;;;7.10;3.03;;;;;;;6.39;89.77;96183.59;4970530;28;20035;-54
2021/12/02 08:15:30;;;;;;;8.23;3.20;;;;;;;6.46;89.22;96184.97;4973498;28;20031;-54
2021/12/02 08:17:56;;;;;;;11.02;3.47;;;;;;;6.11;89.10;96192.81;4971896;28;20035;-54
2021/12/02 08:20:24;;;;;;;10.30;2.83;;;;;;;7.16;89.68;96192.38;4970087;28;21091;-54
2021/12/02 08:22:50;;;;;;;7.78;3.00;;;;;;;6.94;92.50;96189.19;4969383;28;20499;-57
2021/12/02 08:25:17;;;;;;;8.93;2.97;;;;;;;6.66;91.73;96184.72;4970390;28;20812;-53
2021/12/02 08:27:43;;;;;;;8.18;3.08;;;;;;;6.82;89.11;96184.72;4971140;28;20437;-53
2021/12/02 08:30:11;;;;;;;11.15;3.38;;;;;;;6.12;88.81;96184.13;4970579;28;20039;-54
2021/12/02 08:32:40;;;;;;;8.55;3.40;;;;;;;6.78;88.14;96182.38;4973353;28;20986;-54
2021/12/02 08:35:06;;;;;;;8.05;3.08;;;;;;;6.70;90.75;96178.44;4971718;28;20033;-53
2021/12/02 08:37:34;;;;;;;8.63;2.80;;;;;;;7.05;87.41;96175.66;4973607;28;20173;-54
2021/12/02 08:40:00;;;;;;;7.68;2.95;;;;;;;7.05;85.47;96177.41;4975525;28;20057;-53
2021/12/02 08:42:27;;;;;;;9.02;2.72;;;;;;;6.66;85.57;96168.34;4973983;28;20038;-54
2021/12/02 08:44:54;;;;;;;9.18;3.17;;;;;;;6.85;85.33;96173.34;4970955;28;20578;-54
2021/12/02 08:47:22;;;;;;;8.90;3.10;;;;;;;6.85;86.30;96174.16;4974038;28;20591;-54
2021/12/02 08:49:52;;;;;;;11.52;3.78;;;;;;;6.61;85.58;96178.09;4972409;28;20027;-54
2021/12/02 08:52:18;;;;;;;9.43;3.05;;;;;;;6.52;85.74;96166.50;4972861;28;20039;-55
2021/12/02 08:54:43;;;;;;;9.52;3.53;;;;;;;6.73;85.97;96175.69;4970450;28;20037;-54
2021/12/02 08:57:08;;;;;;;10.23;3.00;;;;;;;6.93;88.11;96179.78;4972960;28;20122;-54
2021/12/02 08:59:34;;;;;;;9.10;2.85;;;;;;;6.47;86.51;96176.25;4970838;28;20064;-54
2021/12/02 09:01:59;;;;;;;9.55;3.10;;;;;;;6.95;87.38;96182.28;4973899;28;20047;-54
2021/12/02 09:04:24;;;;;;;13.90;3.70;;;;;;;6.97;87.49;96185.63;4971782;28;20127;-54
2021/12/02 09:06:50;;;;;;;10.18;3.40;;;;;;;6.93;85.20;96197.91;4971332;28;20038;-54
2021/12/02 09:09:15;;;;;;;9.02;3.53;;;;;;;7.39;84.28;96199.69;4972766;28;20022;-55
2021/12/02 09:11:40;;;;;;;10.30;2.80;;;;;;;6.84;86.36;96207.97;4972250;28;20088;-54
2021/12/02 09:14:06;;;;;;;11.27;2.88;;;;;;;7.49;91.13;96200.00;4972528;28;20503;-54
2021/12/02 09:16:33;;;;;;;6.95;2.63;;;;;;;6.87;88.79;96208.59;4973317;28;20265;-53
2021/12/02 09:18:59;;;;;;;8.50;2.58;;;;;;;6.81;89.02;96206.34;4970225;28;20649;-54
2021/12/02 09:21:24;;;;;;;5.85;2.40;;;;;;;7.46;93.68;96213.97;4973423;28;20038;-54
2021/12/02 09:23:51;;;;;;;7.13;3.10;;;;;;;6.53;93.47;96214.78;4971516;28;20033;-55
2021/12/02 09:26:17;;;;;;;6.97;2.80;;;;;;;6.77;94.00;96222.16;4968877;28;20046;-54
2021/12/02 09:28:43;;;;;;;7.05;2.80;;;;;;;7.26;95.51;96212.50;4970146;28;20567;-54
2021/12/02 09:31:08;;;;;;;7.18;2.50;;;;;;;7.08;88.47;96221.31;4970985;28;20104;-54
2021/12/02 09:33:34;;;;;;;5.07;2.20;;;;;;;6.19;90.72;96216.56;4980477;28;20027;-54
2021/12/02 09:36:00;;;;;;;5.90;2.40;;;;;;;6.42;93.74;96220.53;4972332;28;20039;-54
2021/12/02 09:38:25;;;;;;;5.60;2.50;;;;;;;6.62;94.60;96213.47;4974144;28;20334;-55
2021/12/02 09:40:51;;;;;;;5.68;2.13;;;;;;;6.40;97.49;96218.97;4973025;28;20057;-54
2021/12/02 09:43:16;;;;;;;5.82;2.38;;;;;;;5.87;96.96;96221.59;4974649;28;20048;-54
2021/12/02 09:45:42;;;;;;;6.15;2.33;;;;;;;5.78;94.81;96219.47;4971052;28;20042;-54
2021/12/02 09:48:09;;;;;;;6.30;2.60;;;;;;;6.18;99.08;96217.47;4973705;28;20062;-54
2021/12/02 09:50:39;;;;;;;6.47;2.45;;;;;;;6.08;99.32;96221.44;4970175;28;20954;-54
2021/12/02 09:53:07;;;;;;;7.28;2.67;;;;;;;5.86;99.44;96230.25;4974413;28;20033;-54
2021/12/02 09:55:46;;;;;;;5.93;2.25;;;;;;;6.18;96.20;96230.44;4971453;28;20089;-56
2021/12/02 09:58:20;;;;;;;6.90;2.40;;;;;;;6.39;100.00;96240.56;4969454;28;20026;-54
2021/12/02 10:00:56;;;;;;;6.85;2.50;;;;;;;5.66;93.90;96240.78;4970258;28;20046;-54
2021/12/02 10:03:34;;;;;;;6.60;2.10;;;;;;;5.35;95.87;96234.53;4972993;28;20045;-54
2021/12/02 10:06:07;;;;;;;8.15;2.13;;;;;;;6.37;98.42;96232.88;4973929;28;20177;-54
2021/12/02 10:08:43;;;;;;;5.90;2.08;;;;;;;5.69;92.68;96235.47;4974530;28;20145;-55
2021/12/02 10:11:13;;;;;;;5.72;2.13;;;;;;;5.66;92.69;96235.59;4971755;28;20035;-56
2021/12/02 10:13:58;;;;;;;5.03;1.85;;;;;;;6.22;95.07;96231.94;4970483;28;20074;-54
2021/12/02 10:18:59;;;;;;;6.82;2.53;;;;;;;5.62;96.28;96236.69;4973287;28;20753;-55
2021/12/02 10:21:38;;;;;;;7.38;2.33;;;;;;;5.73;96.51;96244.72;4978213;28;20125;-54
2021/12/02 10:24:09;;;;;;;5.38;2.00;;;;;;;5.48;98.94;96232.19;4969348;28;20718;-53
2021/12/02 10:26:45;;;;;;;5.25;2.00;;;;;;;5.46;92.51;96239.16;4971507;28;20035;-54
2021/12/02 10:29:23;;;;;;;6.28;2.28;;;;;;;5.43;95.48;96232.41;4975701;28;20026;-54
2021/12/02 10:32:06;;;;;;;5.53;2.05;;;;;;;5.52;97.15;96237.13;4971502;28;20070;-54
2021/12/02 10:34:44;;;;;;;6.40;2.00;;;;;;;5.40;94.98;96233.41;4969718;28;20124;-53
2021/12/02 10:37:10;;;;;;;5.82;1.90;;;;;;;5.48;95.70;96238.19;4971141;28;20038;-55
2021/12/02 10:39:36;;;;;;;6.15;2.05;;;;;;;5.02;94.43;96243.00;4969850;28;20034;-55
2021/12/02 10:42:06;;;;;;;5.13;1.80;;;;;;;4.97;92.55;96247.53;4971165;28;20046;-54
2021/12/02 10:44:35;;;;;;;5.25;1.90;;;;;;;5.57;95.98;96245.50;4969639;28;20697;-55
2021/12/02 10:47:09;;;;;;;4.88;1.70;;;;;;;5.40;94.78;96245.47;4970055;28;20135;-55
2021/12/02 10:49:34;;;;;;;4.10;1.58;;;;;;;4.82;93.67;96252.50;4980016;28;20252;-54
2021/12/02 10:52:04;;;;;;;5.22;1.90;;;;;;;5.47;93.26;96249.44;4970029;28;20982;-55
2021/12/02 10:54:33;;;;;;;5.68;2.10;;;;;;;5.26;98.58;96260.84;4970492;28;20022;-54
2021/12/02 10:57:06;;;;;;;6.47;2.00;;;;;;;5.38;96.18;96248.13;4972267;28;20688;-55
2021/12/02 10:59:34;;;;;;;5.47;1.95;;;;;;;5.41;91.78;96245.41;4968206;28;20043;-54
2021/12/02 11:02:05;;;;;;;5.05;1.77;;;;;;;5.12;95.66;96244.22;4970768;28;20050;-54
2021/12/02 11:04:37;;;;;;;4.15;1.60;;;;;;;5.38;91.46;96242.13;4978841;28;20026;-54
2021/12/02 11:07:05;;;;;;;6.18;2.00;;;;;;;5.13;94.94;96240.72;4971225;28;20042;-54
2021/12/02 11:09:33;;;;;;;6.32;2.22;;;;;;;4.94;94.64;96235.56;4974242;28;20085;-54
2021/12/02 11:12:19;;;;;;;4.90;1.80;;;;;;;5.88;93.99;96250.88;4971386;28;20042;-54
2021/12/02 11:14:57;;;;;;;5.57;2.05;;;;;;;5.49;91.61;96247.63;4971393;28;20499;-55
2021/12/02 11:17:25;;;;;;;5.47;1.88;;;;;;;5.98;91.24;96247.81;4969308;28;20077;-54
2021/12/02 11:19:51;;;;;;;5.57;2.08;;;;;;;6.12;87.39;96252.28;4971695;28;20093;-54
2021/12/02 11:22:19;;;;;;;6.53;2.22;;;;;;;6.74;92.30;96241.28;4970557;28;20066;-55
2021/12/02 11:24:47;;;;;;;5.85;2.03;;;;;;;6.29;92.52;96245.41;4972124;28;20022;-54
2021/12/02 11:27:21;;;;;;;5.68;2.10;;;;;;;6.70;90.91;96250.97;4970329;28;20129;-54
2021/12/02 11:29:51;;;;;;;8.20;2.67;;;;;;;6.57;89.44;96237.00;4968696;28;20028;-55
2021/12/02 11:32:39;;;;;;;7.05;2.28;;;;;;;6.32;91.66;96238.31;4972914;28;20133;-54
2021/12/02 11:35:16;;;;;;;5.88;1.90;;;;;;;6.55;93.98;96238.84;4979083;28;20084;-54
2021/12/02 11:37:49;;;;;;;4.55;1.80;;;;;;;6.53;92.48;96240.69;4970015;28;20066;-54
2021/12/02 11:40:18;;;;;;;5.45;2.03;;;;;;;6.89;90.26;96247.38;4969230;28;20059;-55
2021/12/02 11:42:45;;;;;;;6.15;2.17;;;;;;;7.21;88.98;96242.22;4971985;28;20033;-54
2021/12/02 11:45:13;;;;;;;6.90;2.10;;;;;;;6.74;88.41;96236.94;4970590;28;20031;-54
2021/12/02 11:47:39;;;;;;;6.00;2.00;;;;;;;6.44;91.88;96236.81;4968394;28;20080;-54
2021/12/02 11:50:07;;;;;;;6.03;2.15;;;;;;;6.42;90.40;96243.00;4967418;28;20519;-54
2021/12/02 11:52:38;;;;;;;5.13;2.03;;;;;;;6.34;92.16;96244.25;4968581;28;20030;-54
2021/12/02 11:55:17;;;;;;;8.52;2.85;;;;;;;6.18;88.93;96243.38;4971586;28;20034;-54
2021/12/02 11:57:43;;;;;;;5.20;2.05;;;;;;;6.38;93.38;96242.34;4970514;28;20081;-54
2021/12/02 12:00:12;;;;;;;6.25;2.40;;;;;;;6.64;88.09;96253.91;4971263;28;20532;-54
2021/12/02 12:02:45;;;;;;;8.23;3.03;;;;;;;6.40;88.84;96240.50;4970495;28;20027;-54
2021/12/02 12:05:12;;;;;;;6.55;2.60;;;;;;;6.85;87.46;96251.06;4970818;28;20982;-54
2021/12/02 12:07:47;;;;;;;6.88;2.70;;;;;;;6.18;89.58;96244.19;4973294;28;20030;-54
2021/12/02 12:10:27;;;;;;;5.85;2.60;;;;;;;5.85;92.56;96238.97;4974795;28;20512;-54